sensor_id;sensor_type;location;lat;lon;timestamp;P1;durP1;ratioP1;P2;durP2;ratioP2
5460;SDS011;2753;49.196;8.286;2023-02-01T00:02:01;9.37;;;5.77;;
5460;SDS011;2753;49.196;8.286;2023-02-01T00:04:27;9.50;;;5.10;;
5460;SDS011;2753;49.196;8.286;2023-02-01T00:06:53;11.00;;;6.17;;
5460;SDS011;2753;49.196;8.286;2023-02-01T00:09:19;9.80;;;5.77;;
5460;SDS011;2753;49.196;8.286;2023-02-01T00:11:45;6.53;;;5.20;;
5460;SDS011;2753;49.196;8.286;2023-02-01T00:14:11;8.27;;;5.73;;
5460;SDS011;2753;49.196;8.286;2023-02-01T00:16:37;8.27;;;5.67;;
5460;SDS011;2753;49.196;8.286;2023-02-01T00:19:04;7.10;;;5.30;;
5460;SDS011;2753;49.196;8.286;2023-02-01T00:21:36;8.90;;;5.33;;
5460;SDS011;2753;49.196;8.286;2023-02-01T00:24:02;12.77;;;6.73;;
5460;SDS011;2753;49.196;8.286;2023-02-01T00:26:32;8.60;;;5.33;;
5460;SDS011;2753;49.196;8.286;2023-02-01T00:29:04;11.83;;;5.83;;
5460;SDS011;2753;49.196;8.286;2023-02-01T00:31:37;9.53;;;5.60;;
5460;SDS011;2753;49.196;8.286;2023-02-01T00:34:03;12.27;;;5.93;;
5460;SDS011;2753;49.196;8.286;2023-02-01T00:36:29;7.90;;;6.20;;
5460;SDS011;2753;49.196;8.286;2023-02-01T00:38:55;9.40;;;5.83;;
5460;SDS011;2753;49.196;8.286;2023-02-01T00:41:21;9.93;;;5.93;;
5460;SDS011;2753;49.196;8.286;2023-02-01T00:43:47;7.00;;;5.13;;
5460;SDS011;2753;49.196;8.286;2023-02-01T00:46:14;9.27;;;5.27;;
5460;SDS011;2753;49.196;8.286;2023-02-01T00:48:41;7.23;;;5.13;;
5460;SDS011;2753;49.196;8.286;2023-02-01T00:51:08;20.30;;;7.30;;
5460;SDS011;2753;49.196;8.286;2023-02-01T00:53:38;18.73;;;6.20;;
5460;SDS011;2753;49.196;8.286;2023-02-01T00:56:04;6.87;;;5.57;;
5460;SDS011;2753;49.196;8.286;2023-02-01T00:58:30;8.00;;;4.90;;
5460;SDS011;2753;49.196;8.286;2023-02-01T01:01:04;13.40;;;5.70;;
5460;SDS011;2753;49.196;8.286;2023-02-01T01:03:35;7.27;;;4.80;;
5460;SDS011;2753;49.196;8.286;2023-02-01T01:06:04;12.13;;;6.20;;
5460;SDS011;2753;49.196;8.286;2023-02-01T01:08:31;12.20;;;5.07;;
5460;SDS011;2753;49.196;8.286;2023-02-01T01:10:57;11.53;;;5.67;;
5460;SDS011;2753;49.196;8.286;2023-02-01T01:13:23;8.07;;;5.73;;
5460;SDS011;2753;49.196;8.286;2023-02-01T01:15:49;9.13;;;4.67;;
5460;SDS011;2753;49.196;8.286;2023-02-01T01:18:15;10.97;;;5.30;;
5460;SDS011;2753;49.196;8.286;2023-02-01T01:20:40;7.00;;;5.97;;
5460;SDS011;2753;49.196;8.286;2023-02-01T01:23:07;7.43;;;5.37;;
5460;SDS011;2753;49.196;8.286;2023-02-01T01:25:37;7.23;;;5.33;;
5460;SDS011;2753;49.196;8.286;2023-02-01T01:28:03;7.13;;;5.93;;
5460;SDS011;2753;49.196;8.286;2023-02-01T01:30:29;13.90;;;6.10;;
5460;SDS011;2753;49.196;8.286;2023-02-01T01:32:55;9.63;;;6.03;;
5460;SDS011;2753;49.196;8.286;2023-02-01T01:35:21;8.40;;;6.20;;
5460;SDS011;2753;49.196;8.286;2023-02-01T01:37:46;8.20;;;5.67;;
5460;SDS011;2753;49.196;8.286;2023-02-01T01:40:12;11.60;;;8.40;;
5460;SDS011;2753;49.196;8.286;2023-02-01T01:42:38;11.27;;;6.90;;
5460;SDS011;2753;49.196;8.286;2023-02-01T01:47:33;13.53;;;6.13;;
5460;SDS011;2753;49.196;8.286;2023-02-01T01:50:07;12.60;;;7.63;;
5460;SDS011;2753;49.196;8.286;2023-02-01T01:52:36;14.50;;;6.07;;
5460;SDS011;2753;49.196;8.286;2023-02-01T01:55:03;12.37;;;5.73;;
5460;SDS011;2753;49.196;8.286;2023-02-01T01:57:31;14.70;;;5.87;;
5460;SDS011;2753;49.196;8.286;2023-02-01T02:00:03;11.70;;;6.77;;
5460;SDS011;2753;49.196;8.286;2023-02-01T02:02:33;10.30;;;5.57;;
5460;SDS011;2753;49.196;8.286;2023-02-01T02:04:59;8.40;;;5.60;;
5460;SDS011;2753;49.196;8.286;2023-02-01T02:07:30;12.03;;;5.30;;
5460;SDS011;2753;49.196;8.286;2023-02-01T02:09:58;10.10;;;6.00;;
5460;SDS011;2753;49.196;8.286;2023-02-01T02:12:25;5.97;;;5.27;;
5460;SDS011;2753;49.196;8.286;2023-02-01T02:14:50;9.90;;;5.77;;
5460;SDS011;2753;49.196;8.286;2023-02-01T02:31:32;8.33;;;5.43;;
5460;SDS011;2753;49.196;8.286;2023-02-01T02:45:21;12.97;;;6.00;;
5460;SDS011;2753;49.196;8.286;2023-02-01T02:51:35;11.27;;;5.00;;
5460;SDS011;2753;49.196;8.286;2023-02-01T02:54:45;6.33;;;5.00;;
5460;SDS011;2753;49.196;8.286;2023-02-01T02:57:30;11.93;;;5.40;;
5460;SDS011;2753;49.196;8.286;2023-02-01T03:00:24;13.90;;;6.30;;
5460;SDS011;2753;49.196;8.286;2023-02-01T03:03:13;8.40;;;5.60;;
5460;SDS011;2753;49.196;8.286;2023-02-01T03:05:57;7.20;;;5.40;;
5460;SDS011;2753;49.196;8.286;2023-02-01T03:08:27;17.60;;;7.07;;
5460;SDS011;2753;49.196;8.286;2023-02-01T03:11:10;11.77;;;6.53;;
5460;SDS011;2753;49.196;8.286;2023-02-01T03:16:17;7.83;;;5.40;;
5460;SDS011;2753;49.196;8.286;2023-02-01T03:21:43;11.90;;;5.50;;
5460;SDS011;2753;49.196;8.286;2023-02-01T03:24:16;8.67;;;5.03;;
5460;SDS011;2753;49.196;8.286;2023-02-01T03:29:32;9.03;;;6.60;;
5460;SDS011;2753;49.196;8.286;2023-02-01T03:32:05;8.27;;;5.40;;
5460;SDS011;2753;49.196;8.286;2023-02-01T03:34:32;15.03;;;6.10;;
5460;SDS011;2753;49.196;8.286;2023-02-01T03:36:59;13.40;;;7.13;;
5460;SDS011;2753;49.196;8.286;2023-02-01T03:39:32;12.13;;;6.37;;
5460;SDS011;2753;49.196;8.286;2023-02-01T03:42:00;12.83;;;6.30;;
5460;SDS011;2753;49.196;8.286;2023-02-01T03:44:38;10.27;;;6.23;;
5460;SDS011;2753;49.196;8.286;2023-02-01T03:47:15;9.10;;;6.30;;
5460;SDS011;2753;49.196;8.286;2023-02-01T03:50:06;19.40;;;6.70;;
5460;SDS011;2753;49.196;8.286;2023-02-01T03:55:07;8.53;;;6.23;;
5460;SDS011;2753;49.196;8.286;2023-02-01T03:57:37;10.90;;;6.10;;
5460;SDS011;2753;49.196;8.286;2023-02-01T04:00:07;12.37;;;7.33;;
5460;SDS011;2753;49.196;8.286;2023-02-01T04:02:40;11.23;;;6.00;;
5460;SDS011;2753;49.196;8.286;2023-02-01T04:05:05;13.50;;;5.53;;
5460;SDS011;2753;49.196;8.286;2023-02-01T04:07:31;20.47;;;6.37;;
5460;SDS011;2753;49.196;8.286;2023-02-01T04:09:57;11.63;;;6.33;;
5460;SDS011;2753;49.196;8.286;2023-02-01T04:12:22;14.53;;;6.40;;
5460;SDS011;2753;49.196;8.286;2023-02-01T04:14:48;13.27;;;6.17;;
5460;SDS011;2753;49.196;8.286;2023-02-01T04:17:14;9.83;;;4.90;;
5460;SDS011;2753;49.196;8.286;2023-02-01T04:19:39;5.37;;;4.70;;
5460;SDS011;2753;49.196;8.286;2023-02-01T04:22:05;9.87;;;6.13;;
5460;SDS011;2753;49.196;8.286;2023-02-01T04:24:31;7.20;;;5.20;;
5460;SDS011;2753;49.196;8.286;2023-02-01T04:26:56;12.37;;;5.40;;
5460;SDS011;2753;49.196;8.286;2023-02-01T04:29:22;12.70;;;5.97;;
5460;SDS011;2753;49.196;8.286;2023-02-01T04:31:47;9.87;;;5.00;;
5460;SDS011;2753;49.196;8.286;2023-02-01T04:34:14;12.47;;;5.13;;
5460;SDS011;2753;49.196;8.286;2023-02-01T04:36:40;8.67;;;5.23;;
5460;SDS011;2753;49.196;8.286;2023-02-01T04:39:05;11.37;;;4.90;;
5460;SDS011;2753;49.196;8.286;2023-02-01T04:41:31;6.60;;;4.20;;
5460;SDS011;2753;49.196;8.286;2023-02-01T04:43:57;6.87;;;4.00;;
5460;SDS011;2753;49.196;8.286;2023-02-01T04:46:22;10.33;;;4.40;;
5460;SDS011;2753;49.196;8.286;2023-02-01T04:48:48;12.63;;;4.73;;
5460;SDS011;2753;49.196;8.286;2023-02-01T04:51:13;5.50;;;3.70;;
5460;SDS011;2753;49.196;8.286;2023-02-01T04:53:40;9.90;;;4.53;;
5460;SDS011;2753;49.196;8.286;2023-02-01T04:56:06;7.67;;;4.30;;
5460;SDS011;2753;49.196;8.286;2023-02-01T04:58:32;12.70;;;4.87;;
5460;SDS011;2753;49.196;8.286;2023-02-01T05:00:58;13.20;;;4.70;;
5460;SDS011;2753;49.196;8.286;2023-02-01T05:03:24;8.00;;;4.40;;
5460;SDS011;2753;49.196;8.286;2023-02-01T05:05:49;7.83;;;4.57;;
5460;SDS011;2753;49.196;8.286;2023-02-01T05:08:15;11.30;;;4.37;;
5460;SDS011;2753;49.196;8.286;2023-02-01T05:10:41;5.03;;;4.00;;
5460;SDS011;2753;49.196;8.286;2023-02-01T05:13:07;6.67;;;4.00;;
5460;SDS011;2753;49.196;8.286;2023-02-01T05:15:52;6.83;;;4.07;;
5460;SDS011;2753;49.196;8.286;2023-02-01T05:18:18;7.23;;;3.87;;
5460;SDS011;2753;49.196;8.286;2023-02-01T05:20:44;6.53;;;3.27;;
5460;SDS011;2753;49.196;8.286;2023-02-01T05:23:09;9.10;;;4.60;;
5460;SDS011;2753;49.196;8.286;2023-02-01T05:25:35;9.03;;;5.90;;
5460;SDS011;2753;49.196;8.286;2023-02-01T05:28:01;5.17;;;4.60;;
5460;SDS011;2753;49.196;8.286;2023-02-01T05:30:26;4.83;;;4.07;;
5460;SDS011;2753;49.196;8.286;2023-02-01T05:32:52;7.10;;;4.53;;
5460;SDS011;2753;49.196;8.286;2023-02-01T05:35:18;7.00;;;4.40;;
5460;SDS011;2753;49.196;8.286;2023-02-01T05:37:44;10.03;;;5.00;;
5460;SDS011;2753;49.196;8.286;2023-02-01T05:40:10;11.60;;;5.40;;
5460;SDS011;2753;49.196;8.286;2023-02-01T05:42:36;12.83;;;6.03;;
5460;SDS011;2753;49.196;8.286;2023-02-01T05:45:01;11.10;;;6.40;;
5460;SDS011;2753;49.196;8.286;2023-02-01T05:47:30;12.50;;;6.00;;
5460;SDS011;2753;49.196;8.286;2023-02-01T05:49:56;10.33;;;5.50;;
5460;SDS011;2753;49.196;8.286;2023-02-01T05:52:21;10.70;;;5.77;;
5460;SDS011;2753;49.196;8.286;2023-02-01T05:54:47;11.90;;;5.60;;
5460;SDS011;2753;49.196;8.286;2023-02-01T05:57:13;12.93;;;6.63;;
5460;SDS011;2753;49.196;8.286;2023-02-01T05:59:39;12.33;;;5.77;;
5460;SDS011;2753;49.196;8.286;2023-02-01T06:02:10;13.57;;;7.07;;
5460;SDS011;2753;49.196;8.286;2023-02-01T06:04:36;13.30;;;7.33;;
5460;SDS011;2753;49.196;8.286;2023-02-01T06:07:02;18.20;;;7.20;;
5460;SDS011;2753;49.196;8.286;2023-02-01T06:09:27;11.70;;;6.90;;
5460;SDS011;2753;49.196;8.286;2023-02-01T06:11:53;13.10;;;5.83;;
5460;SDS011;2753;49.196;8.286;2023-02-01T06:14:19;16.20;;;6.70;;
5460;SDS011;2753;49.196;8.286;2023-02-01T06:16:45;14.50;;;7.47;;
5460;SDS011;2753;49.196;8.286;2023-02-01T06:19:11;13.20;;;7.20;;
5460;SDS011;2753;49.196;8.286;2023-02-01T06:21:37;12.40;;;6.77;;
5460;SDS011;2753;49.196;8.286;2023-02-01T06:24:03;16.73;;;6.67;;
5460;SDS011;2753;49.196;8.286;2023-02-01T06:26:29;16.83;;;6.97;;
5460;SDS011;2753;49.196;8.286;2023-02-01T06:28:55;16.00;;;7.83;;
5460;SDS011;2753;49.196;8.286;2023-02-01T06:31:21;16.83;;;7.50;;
5460;SDS011;2753;49.196;8.286;2023-02-01T06:33:48;28.97;;;13.23;;
5460;SDS011;2753;49.196;8.286;2023-02-01T06:36:14;31.73;;;10.90;;
5460;SDS011;2753;49.196;8.286;2023-02-01T06:38:45;23.90;;;9.33;;
5460;SDS011;2753;49.196;8.286;2023-02-01T06:41:11;16.47;;;6.20;;
5460;SDS011;2753;49.196;8.286;2023-02-01T06:43:36;19.37;;;7.50;;
5460;SDS011;2753;49.196;8.286;2023-02-01T06:46:03;18.43;;;8.50;;
5460;SDS011;2753;49.196;8.286;2023-02-01T06:48:31;15.57;;;7.97;;
5460;SDS011;2753;49.196;8.286;2023-02-01T06:50:57;11.10;;;7.30;;
5460;SDS011;2753;49.196;8.286;2023-02-01T06:53:23;22.33;;;9.10;;
5460;SDS011;2753;49.196;8.286;2023-02-01T06:55:55;15.80;;;8.23;;
5460;SDS011;2753;49.196;8.286;2023-02-01T06:58:23;39.60;;;9.97;;
5460;SDS011;2753;49.196;8.286;2023-02-01T07:00:49;25.43;;;9.67;;
5460;SDS011;2753;49.196;8.286;2023-02-01T07:03:15;24.57;;;9.27;;
5460;SDS011;2753;49.196;8.286;2023-02-01T07:05:41;19.20;;;9.40;;
5460;SDS011;2753;49.196;8.286;2023-02-01T07:08:07;13.83;;;7.60;;
5460;SDS011;2753;49.196;8.286;2023-02-01T07:10:33;21.70;;;8.00;;
5460;SDS011;2753;49.196;8.286;2023-02-01T07:12:59;19.37;;;7.97;;
5460;SDS011;2753;49.196;8.286;2023-02-01T07:15:25;21.73;;;7.33;;
5460;SDS011;2753;49.196;8.286;2023-02-01T07:17:51;30.13;;;8.53;;
5460;SDS011;2753;49.196;8.286;2023-02-01T07:20:19;14.40;;;6.30;;
5460;SDS011;2753;49.196;8.286;2023-02-01T07:22:44;31.50;;;7.00;;
5460;SDS011;2753;49.196;8.286;2023-02-01T07:25:10;18.20;;;6.80;;
5460;SDS011;2753;49.196;8.286;2023-02-01T07:27:36;16.57;;;6.97;;
5460;SDS011;2753;49.196;8.286;2023-02-01T07:30:03;12.50;;;5.90;;
5460;SDS011;2753;49.196;8.286;2023-02-01T07:32:29;14.93;;;7.00;;
5460;SDS011;2753;49.196;8.286;2023-02-01T07:34:55;11.63;;;6.30;;
5460;SDS011;2753;49.196;8.286;2023-02-01T07:37:21;17.13;;;6.33;;
5460;SDS011;2753;49.196;8.286;2023-02-01T07:39:49;19.90;;;7.37;;
5460;SDS011;2753;49.196;8.286;2023-02-01T07:42:15;42.20;;;16.20;;
5460;SDS011;2753;49.196;8.286;2023-02-01T07:44:40;34.83;;;12.93;;
5460;SDS011;2753;49.196;8.286;2023-02-01T07:47:06;61.40;;;17.87;;
5460;SDS011;2753;49.196;8.286;2023-02-01T07:49:32;19.27;;;8.13;;
5460;SDS011;2753;49.196;8.286;2023-02-01T07:51:57;23.40;;;8.33;;
5460;SDS011;2753;49.196;8.286;2023-02-01T07:54:23;27.20;;;7.10;;
5460;SDS011;2753;49.196;8.286;2023-02-01T07:56:48;15.60;;;7.40;;
5460;SDS011;2753;49.196;8.286;2023-02-01T07:59:14;24.20;;;8.63;;
5460;SDS011;2753;49.196;8.286;2023-02-01T08:01:40;16.30;;;6.67;;
5460;SDS011;2753;49.196;8.286;2023-02-01T08:04:07;21.40;;;6.20;;
5460;SDS011;2753;49.196;8.286;2023-02-01T08:06:36;24.47;;;7.43;;
5460;SDS011;2753;49.196;8.286;2023-02-01T08:09:03;24.00;;;7.23;;
5460;SDS011;2753;49.196;8.286;2023-02-01T08:11:29;15.30;;;6.47;;
5460;SDS011;2753;49.196;8.286;2023-02-01T08:13:56;20.97;;;7.97;;
5460;SDS011;2753;49.196;8.286;2023-02-01T08:16:23;20.70;;;8.00;;
5460;SDS011;2753;49.196;8.286;2023-02-01T08:18:49;15.83;;;6.50;;
5460;SDS011;2753;49.196;8.286;2023-02-01T08:21:17;18.20;;;6.50;;
5460;SDS011;2753;49.196;8.286;2023-02-01T08:23:45;27.13;;;8.00;;
5460;SDS011;2753;49.196;8.286;2023-02-01T08:26:15;10.90;;;5.60;;
5460;SDS011;2753;49.196;8.286;2023-02-01T08:28:42;30.63;;;6.73;;
5460;SDS011;2753;49.196;8.286;2023-02-01T08:31:11;24.43;;;6.70;;
5460;SDS011;2753;49.196;8.286;2023-02-01T08:33:42;24.40;;;7.43;;
5460;SDS011;2753;49.196;8.286;2023-02-01T08:36:09;15.77;;;6.30;;
5460;SDS011;2753;49.196;8.286;2023-02-01T08:38:36;23.17;;;6.37;;
5460;SDS011;2753;49.196;8.286;2023-02-01T08:41:05;19.03;;;5.23;;
5460;SDS011;2753;49.196;8.286;2023-02-01T08:43:32;16.00;;;6.27;;
5460;SDS011;2753;49.196;8.286;2023-02-01T08:45:58;10.50;;;5.30;;
5460;SDS011;2753;49.196;8.286;2023-02-01T08:48:23;13.53;;;5.50;;
5460;SDS011;2753;49.196;8.286;2023-02-01T08:50:49;20.17;;;6.87;;
5460;SDS011;2753;49.196;8.286;2023-02-01T08:53:14;27.43;;;5.90;;
5460;SDS011;2753;49.196;8.286;2023-02-01T08:55:40;19.17;;;6.40;;
5460;SDS011;2753;49.196;8.286;2023-02-01T08:58:06;23.40;;;6.57;;
5460;SDS011;2753;49.196;8.286;2023-02-01T09:00:31;25.00;;;6.13;;
5460;SDS011;2753;49.196;8.286;2023-02-01T09:02:57;18.60;;;5.60;;
5460;SDS011;2753;49.196;8.286;2023-02-01T09:05:23;22.37;;;4.77;;
5460;SDS011;2753;49.196;8.286;2023-02-01T09:07:51;16.83;;;4.93;;
5460;SDS011;2753;49.196;8.286;2023-02-01T09:10:17;29.80;;;5.10;;
5460;SDS011;2753;49.196;8.286;2023-02-01T09:12:43;28.47;;;5.50;;
5460;SDS011;2753;49.196;8.286;2023-02-01T09:15:09;23.53;;;5.87;;
5460;SDS011;2753;49.196;8.286;2023-02-01T09:17:35;17.33;;;6.07;;
5460;SDS011;2753;49.196;8.286;2023-02-01T09:20:01;20.27;;;4.77;;
5460;SDS011;2753;49.196;8.286;2023-02-01T09:22:27;26.03;;;6.70;;
5460;SDS011;2753;49.196;8.286;2023-02-01T09:24:53;21.07;;;6.90;;
5460;SDS011;2753;49.196;8.286;2023-02-01T09:27:19;22.53;;;6.77;;
5460;SDS011;2753;49.196;8.286;2023-02-01T09:29:45;26.77;;;5.10;;
5460;SDS011;2753;49.196;8.286;2023-02-01T09:32:14;27.67;;;5.47;;
5460;SDS011;2753;49.196;8.286;2023-02-01T09:34:40;27.10;;;5.33;;
5460;SDS011;2753;49.196;8.286;2023-02-01T09:37:06;25.17;;;4.83;;
5460;SDS011;2753;49.196;8.286;2023-02-01T09:39:32;24.60;;;5.10;;
5460;SDS011;2753;49.196;8.286;2023-02-01T09:47:23;18.87;;;4.30;;
5460;SDS011;2753;49.196;8.286;2023-02-01T09:52:27;11.80;;;3.90;;
5460;SDS011;2753;49.196;8.286;2023-02-01T09:55:01;18.90;;;4.30;;
5460;SDS011;2753;49.196;8.286;2023-02-01T10:00:25;21.70;;;3.67;;
5460;SDS011;2753;49.196;8.286;2023-02-01T10:02:54;8.53;;;2.83;;
5460;SDS011;2753;49.196;8.286;2023-02-01T10:05:34;19.70;;;3.90;;
5460;SDS011;2753;49.196;8.286;2023-02-01T10:10:29;11.43;;;4.40;;
5460;SDS011;2753;49.196;8.286;2023-02-01T10:18:51;20.43;;;5.27;;
5460;SDS011;2753;49.196;8.286;2023-02-01T10:21:47;27.10;;;7.00;;
5460;SDS011;2753;49.196;8.286;2023-02-01T10:27:33;22.07;;;6.20;;
5460;SDS011;2753;49.196;8.286;2023-02-01T10:32:48;31.00;;;6.93;;
5460;SDS011;2753;49.196;8.286;2023-02-01T10:35:31;17.93;;;6.03;;
5460;SDS011;2753;49.196;8.286;2023-02-01T10:38:00;19.20;;;4.90;;
5460;SDS011;2753;49.196;8.286;2023-02-01T10:40:29;20.10;;;5.13;;
5460;SDS011;2753;49.196;8.286;2023-02-01T10:42:59;22.03;;;5.80;;
5460;SDS011;2753;49.196;8.286;2023-02-01T10:45:30;15.27;;;4.60;;
5460;SDS011;2753;49.196;8.286;2023-02-01T10:47:59;28.43;;;5.37;;
5460;SDS011;2753;49.196;8.286;2023-02-01T10:53:13;25.23;;;6.70;;
5460;SDS011;2753;49.196;8.286;2023-02-01T11:01:01;15.57;;;4.93;;
5460;SDS011;2753;49.196;8.286;2023-02-01T11:03:54;19.63;;;5.70;;
5460;SDS011;2753;49.196;8.286;2023-02-01T11:16:48;20.23;;;3.43;;
5460;SDS011;2753;49.196;8.286;2023-02-01T11:19:16;13.33;;;4.30;;
5460;SDS011;2753;49.196;8.286;2023-02-01T11:21:42;14.87;;;4.00;;
5460;SDS011;2753;49.196;8.286;2023-02-01T11:24:54;15.73;;;3.13;;
5460;SDS011;2753;49.196;8.286;2023-02-01T11:27:03;13.00;;;3.20;;
5460;SDS011;2753;49.196;8.286;2023-02-01T11:29:41;15.77;;;4.37;;
5460;SDS011;2753;49.196;8.286;2023-02-01T11:32:09;32.07;;;5.43;;
5460;SDS011;2753;49.196;8.286;2023-02-01T11:34:38;12.60;;;3.53;;
5460;SDS011;2753;49.196;8.286;2023-02-01T11:37:20;12.17;;;3.53;;
5460;SDS011;2753;49.196;8.286;2023-02-01T11:39:57;18.30;;;4.20;;
5460;SDS011;2753;49.196;8.286;2023-02-01T11:42:26;14.93;;;3.60;;
5460;SDS011;2753;49.196;8.286;2023-02-01T11:45:13;15.10;;;3.57;;
5460;SDS011;2753;49.196;8.286;2023-02-01T11:47:51;20.33;;;3.80;;
5460;SDS011;2753;49.196;8.286;2023-02-01T11:50:27;30.07;;;3.70;;
5460;SDS011;2753;49.196;8.286;2023-02-01T11:53:17;40.60;;;4.97;;
5460;SDS011;2753;49.196;8.286;2023-02-01T12:15:22;17.93;;;3.90;;
5460;SDS011;2753;49.196;8.286;2023-02-01T12:18:05;15.03;;;3.97;;
5460;SDS011;2753;49.196;8.286;2023-02-01T12:21:04;28.07;;;6.27;;
5460;SDS011;2753;49.196;8.286;2023-02-01T12:43:12;21.37;;;4.23;;
5460;SDS011;2753;49.196;8.286;2023-02-01T12:46:02;23.03;;;4.70;;
5460;SDS011;2753;49.196;8.286;2023-02-01T12:48:42;28.97;;;5.90;;
5460;SDS011;2753;49.196;8.286;2023-02-01T12:51:19;17.33;;;4.93;;
5460;SDS011;2753;49.196;8.286;2023-02-01T12:53:55;16.20;;;4.20;;
5460;SDS011;2753;49.196;8.286;2023-02-01T12:56:44;14.00;;;2.80;;
5460;SDS011;2753;49.196;8.286;2023-02-01T12:59:15;30.60;;;4.10;;
5460;SDS011;2753;49.196;8.286;2023-02-01T13:10:21;17.43;;;4.23;;
5460;SDS011;2753;49.196;8.286;2023-02-01T13:15:39;22.23;;;4.00;;
5460;SDS011;2753;49.196;8.286;2023-02-01T13:18:33;24.70;;;4.00;;
5460;SDS011;2753;49.196;8.286;2023-02-01T13:21:03;23.13;;;4.73;;
5460;SDS011;2753;49.196;8.286;2023-02-01T13:23:45;35.53;;;5.20;;
5460;SDS011;2753;49.196;8.286;2023-02-01T13:26:12;18.53;;;3.70;;
5460;SDS011;2753;49.196;8.286;2023-02-01T13:39:15;21.10;;;3.37;;
5460;SDS011;2753;49.196;8.286;2023-02-01T13:41:52;33.93;;;4.43;;
5460;SDS011;2753;49.196;8.286;2023-02-01T13:44:26;24.53;;;4.63;;
5460;SDS011;2753;49.196;8.286;2023-02-01T13:46:57;10.47;;;3.40;;
5460;SDS011;2753;49.196;8.286;2023-02-01T13:49:28;25.53;;;4.77;;
5460;SDS011;2753;49.196;8.286;2023-02-01T13:52:03;34.03;;;5.63;;
5460;SDS011;2753;49.196;8.286;2023-02-01T13:54:47;29.70;;;4.63;;
5460;SDS011;2753;49.196;8.286;2023-02-01T14:00:06;23.33;;;3.80;;
5460;SDS011;2753;49.196;8.286;2023-02-01T14:05:10;30.13;;;4.53;;
5460;SDS011;2753;49.196;8.286;2023-02-01T14:13:23;18.30;;;4.07;;
5460;SDS011;2753;49.196;8.286;2023-02-01T14:21:12;18.10;;;4.20;;
5460;SDS011;2753;49.196;8.286;2023-02-01T14:37:11;19.27;;;3.67;;
5460;SDS011;2753;49.196;8.286;2023-02-01T14:42:38;20.63;;;4.83;;
5460;SDS011;2753;49.196;8.286;2023-02-01T14:50:21;24.03;;;4.50;;
5460;SDS011;2753;49.196;8.286;2023-02-01T14:53:05;17.13;;;3.47;;
5460;SDS011;2753;49.196;8.286;2023-02-01T14:58:18;21.03;;;3.70;;
5460;SDS011;2753;49.196;8.286;2023-02-01T15:01:06;18.27;;;3.83;;
5460;SDS011;2753;49.196;8.286;2023-02-01T15:09:32;17.47;;;3.90;;
5460;SDS011;2753;49.196;8.286;2023-02-01T15:17:17;23.43;;;3.93;;
5460;SDS011;2753;49.196;8.286;2023-02-01T15:19:59;10.10;;;3.00;;
5460;SDS011;2753;49.196;8.286;2023-02-01T15:22:52;17.40;;;4.53;;
5460;SDS011;2753;49.196;8.286;2023-02-01T15:25:20;11.80;;;5.00;;
5460;SDS011;2753;49.196;8.286;2023-02-01T15:27:54;17.20;;;5.10;;
5460;SDS011;2753;49.196;8.286;2023-02-01T15:30:25;13.40;;;3.90;;
5460;SDS011;2753;49.196;8.286;2023-02-01T15:33:03;19.70;;;4.20;;
5460;SDS011;2753;49.196;8.286;2023-02-01T15:35:33;17.30;;;4.43;;
5460;SDS011;2753;49.196;8.286;2023-02-01T15:43:27;21.60;;;4.10;;
5460;SDS011;2753;49.196;8.286;2023-02-01T15:45:59;17.30;;;3.87;;
5460;SDS011;2753;49.196;8.286;2023-02-01T15:48:28;14.37;;;4.00;;
5460;SDS011;2753;49.196;8.286;2023-02-01T15:50:59;22.07;;;6.60;;
5460;SDS011;2753;49.196;8.286;2023-02-01T15:53:25;27.70;;;5.67;;
5460;SDS011;2753;49.196;8.286;2023-02-01T15:55:57;19.40;;;5.53;;
5460;SDS011;2753;49.196;8.286;2023-02-01T15:58:25;20.73;;;4.00;;
5460;SDS011;2753;49.196;8.286;2023-02-01T16:00:59;15.23;;;4.47;;
5460;SDS011;2753;49.196;8.286;2023-02-01T16:03:37;22.20;;;4.40;;
5460;SDS011;2753;49.196;8.286;2023-02-01T16:06:12;15.30;;;3.17;;
5460;SDS011;2753;49.196;8.286;2023-02-01T16:13:55;21.40;;;4.33;;
5460;SDS011;2753;49.196;8.286;2023-02-01T16:16:25;9.47;;;3.20;;
5460;SDS011;2753;49.196;8.286;2023-02-01T16:18:52;9.80;;;3.37;;
5460;SDS011;2753;49.196;8.286;2023-02-01T16:21:18;18.60;;;3.40;;
5460;SDS011;2753;49.196;8.286;2023-02-01T16:23:47;28.43;;;4.07;;
5460;SDS011;2753;49.196;8.286;2023-02-01T16:26:14;19.90;;;3.43;;
5460;SDS011;2753;49.196;8.286;2023-02-01T16:28:40;14.13;;;2.70;;
5460;SDS011;2753;49.196;8.286;2023-02-01T16:31:08;18.27;;;3.70;;
5460;SDS011;2753;49.196;8.286;2023-02-01T16:33:44;12.87;;;3.50;;
5460;SDS011;2753;49.196;8.286;2023-02-01T16:36:17;21.30;;;3.83;;
5460;SDS011;2753;49.196;8.286;2023-02-01T16:38:43;17.37;;;3.90;;
5460;SDS011;2753;49.196;8.286;2023-02-01T16:41:15;16.70;;;4.90;;
5460;SDS011;2753;49.196;8.286;2023-02-01T16:43:45;17.37;;;3.20;;
5460;SDS011;2753;49.196;8.286;2023-02-01T16:46:15;10.97;;;3.33;;
5460;SDS011;2753;49.196;8.286;2023-02-01T16:48:45;19.80;;;4.50;;
5460;SDS011;2753;49.196;8.286;2023-02-01T16:51:15;19.03;;;5.80;;
5460;SDS011;2753;49.196;8.286;2023-02-01T16:53:41;21.33;;;3.90;;
5460;SDS011;2753;49.196;8.286;2023-02-01T16:56:21;15.07;;;3.37;;
5460;SDS011;2753;49.196;8.286;2023-02-01T16:58:48;17.80;;;4.00;;
5460;SDS011;2753;49.196;8.286;2023-02-01T17:01:15;23.63;;;3.60;;
5460;SDS011;2753;49.196;8.286;2023-02-01T17:03:43;14.77;;;3.97;;
5460;SDS011;2753;49.196;8.286;2023-02-01T17:06:10;20.13;;;3.60;;
5460;SDS011;2753;49.196;8.286;2023-02-01T17:08:42;18.63;;;3.07;;
5460;SDS011;2753;49.196;8.286;2023-02-01T17:11:11;12.93;;;3.40;;
5460;SDS011;2753;49.196;8.286;2023-02-01T17:13:38;21.33;;;5.87;;
5460;SDS011;2753;49.196;8.286;2023-02-01T17:16:13;29.83;;;4.20;;
5460;SDS011;2753;49.196;8.286;2023-02-01T17:19:33;18.77;;;3.40;;
5460;SDS011;2753;49.196;8.286;2023-02-01T17:21:46;11.60;;;3.57;;
5460;SDS011;2753;49.196;8.286;2023-02-01T17:24:18;15.47;;;5.47;;
5460;SDS011;2753;49.196;8.286;2023-02-01T17:26:46;10.80;;;3.23;;
5460;SDS011;2753;49.196;8.286;2023-02-01T17:29:12;16.47;;;4.60;;
5460;SDS011;2753;49.196;8.286;2023-02-01T17:31:40;11.67;;;3.20;;
5460;SDS011;2753;49.196;8.286;2023-02-01T17:34:09;29.33;;;5.40;;
5460;SDS011;2753;49.196;8.286;2023-02-01T17:36:36;13.77;;;3.70;;
5460;SDS011;2753;49.196;8.286;2023-02-01T17:39:03;13.10;;;4.30;;
5460;SDS011;2753;49.196;8.286;2023-02-01T17:41:29;12.33;;;3.47;;
5460;SDS011;2753;49.196;8.286;2023-02-01T17:43:55;19.90;;;4.50;;
5460;SDS011;2753;49.196;8.286;2023-02-01T17:46:20;17.60;;;4.27;;
5460;SDS011;2753;49.196;8.286;2023-02-01T17:48:54;27.73;;;4.13;;
5460;SDS011;2753;49.196;8.286;2023-02-01T17:51:21;15.53;;;4.57;;
5460;SDS011;2753;49.196;8.286;2023-02-01T17:53:49;11.53;;;2.90;;
5460;SDS011;2753;49.196;8.286;2023-02-01T17:56:16;10.63;;;3.73;;
5460;SDS011;2753;49.196;8.286;2023-02-01T17:58:43;11.30;;;3.50;;
5460;SDS011;2753;49.196;8.286;2023-02-01T18:01:17;20.70;;;4.33;;
5460;SDS011;2753;49.196;8.286;2023-02-01T18:03:44;20.30;;;3.63;;
5460;SDS011;2753;49.196;8.286;2023-02-01T18:06:11;28.43;;;3.77;;
5460;SDS011;2753;49.196;8.286;2023-02-01T18:08:39;22.40;;;4.07;;
5460;SDS011;2753;49.196;8.286;2023-02-01T18:11:08;26.00;;;4.77;;
5460;SDS011;2753;49.196;8.286;2023-02-01T18:13:45;21.03;;;5.47;;
5460;SDS011;2753;49.196;8.286;2023-02-01T18:16:31;23.03;;;3.93;;
5460;SDS011;2753;49.196;8.286;2023-02-01T18:18:58;20.87;;;4.27;;
5460;SDS011;2753;49.196;8.286;2023-02-01T18:21:29;29.77;;;4.50;;
5460;SDS011;2753;49.196;8.286;2023-02-01T18:23:58;16.20;;;4.70;;
5460;SDS011;2753;49.196;8.286;2023-02-01T18:26:27;28.37;;;4.00;;
5460;SDS011;2753;49.196;8.286;2023-02-01T18:28:53;17.27;;;3.83;;
5460;SDS011;2753;49.196;8.286;2023-02-01T18:33:47;18.13;;;4.43;;
5460;SDS011;2753;49.196;8.286;2023-02-01T18:36:14;25.33;;;4.03;;
5460;SDS011;2753;49.196;8.286;2023-02-01T18:38:40;30.37;;;5.20;;
5460;SDS011;2753;49.196;8.286;2023-02-01T18:41:07;14.03;;;3.80;;
5460;SDS011;2753;49.196;8.286;2023-02-01T18:43:36;18.70;;;5.10;;
5460;SDS011;2753;49.196;8.286;2023-02-01T18:46:02;17.33;;;3.43;;
5460;SDS011;2753;49.196;8.286;2023-02-01T18:48:28;19.97;;;4.10;;
5460;SDS011;2753;49.196;8.286;2023-02-01T18:50:53;18.37;;;4.23;;